sensor_id;sensor_type;location;lat;lon;timestamp;temperature;humidity
34837;DHT22;21053;50.848;4.652;2022-07-30T00:00:56;17.70;99.90
34837;DHT22;21053;50.848;4.652;2022-07-30T00:03:23;17.50;99.90
34837;DHT22;21053;50.848;4.652;2022-07-30T00:05:51;17.40;99.90
34837;DHT22;21053;50.848;4.652;2022-07-30T00:08:22;17.20;99.90
34837;DHT22;21053;50.848;4.652;2022-07-30T00:10:49;17.20;99.90
34837;DHT22;21053;50.848;4.652;2022-07-30T00:13:18;17.20;99.90
34837;DHT22;21053;50.848;4.652;2022-07-30T00:15:44;17.10;99.90
34837;DHT22;21053;50.848;4.652;2022-07-30T00:18:10;17.00;99.90
34837;DHT22;21053;50.848;4.652;2022-07-30T00:20:37;16.80;99.90
34837;DHT22;21053;50.848;4.652;2022-07-30T00:23:05;16.60;99.90
34837;DHT22;21053;50.848;4.652;2022-07-30T00:25:32;16.50;99.90
34837;DHT22;21053;50.848;4.652;2022-07-30T00:27:58;16.40;99.90
34837;DHT22;21053;50.848;4.652;2022-07-30T00:30:26;16.30;99.90
34837;DHT22;21053;50.848;4.652;2022-07-30T00:32:52;16.30;99.90
34837;DHT22;21053;50.848;4.652;2022-07-30T00:35:19;16.20;99.90
34837;DHT22;21053;50.848;4.652;2022-07-30T00:37:45;16.20;99.90
34837;DHT22;21053;50.848;4.652;2022-07-30T00:40:10;16.20;99.90
34837;DHT22;21053;50.848;4.652;2022-07-30T00:42:40;16.20;99.90
34837;DHT22;21053;50.848;4.652;2022-07-30T00:45:07;16.10;99.90
34837;DHT22;21053;50.848;4.652;2022-07-30T00:47:33;16.10;99.90
34837;DHT22;21053;50.848;4.652;2022-07-30T00:50:00;16.00;99.90
34837;DHT22;21053;50.848;4.652;2022-07-30T00:52:35;15.90;99.90
34837;DHT22;21053;50.848;4.652;2022-07-30T00:55:06;16.00;99.90
34837;DHT22;21053;50.848;4.652;2022-07-30T00:57:32;16.00;99.90
34837;DHT22;21053;50.848;4.652;2022-07-30T00:59:59;16.00;99.90
34837;DHT22;21053;50.848;4.652;2022-07-30T01:02:25;16.00;99.90
34837;DHT22;21053;50.848;4.652;2022-07-30T01:04:52;15.90;99.90
34837;DHT22;21053;50.848;4.652;2022-07-30T01:07:19;15.80;99.90
34837;DHT22;21053;50.848;4.652;2022-07-30T01:09:46;15.70;99.90
34837;DHT22;21053;50.848;4.652;2022-07-30T01:12:18;15.60;99.90
34837;DHT22;21053;50.848;4.652;2022-07-30T01:14:45;15.60;99.90
34837;DHT22;21053;50.848;4.652;2022-07-30T01:17:12;15.60;99.90
34837;DHT22;21053;50.848;4.652;2022-07-30T01:19:40;15.60;99.90
34837;DHT22;21053;50.848;4.652;2022-07-30T01:27:51;15.70;99.90
34837;DHT22;21053;50.848;4.652;2022-07-30T01:30:20;15.50;99.90
34837;DHT22;21053;50.848;4.652;2022-07-30T01:32:48;15.40;99.90
34837;DHT22;21053;50.848;4.652;2022-07-30T01:35:17;15.50;99.90
34837;DHT22;21053;50.848;4.652;2022-07-30T01:37:48;15.50;99.90
34837;DHT22;21053;50.848;4.652;2022-07-30T01:40:16;15.40;99.90
34837;DHT22;21053;50.848;4.652;2022-07-30T01:42:51;15.30;99.90
34837;DHT22;21053;50.848;4.652;2022-07-30T01:45:21;15.30;99.90
34837;DHT22;21053;50.848;4.652;2022-07-30T01:47:51;15.30;99.90
34837;DHT22;21053;50.848;4.652;2022-07-30T01:50:19;15.20;99.90
34837;DHT22;21053;50.848;4.652;2022-07-30T01:52:51;15.10;99.90
34837;DHT22;21053;50.848;4.652;2022-07-30T01:55:22;15.00;99.90
34837;DHT22;21053;50.848;4.652;2022-07-30T01:57:50;14.90;99.90
34837;DHT22;21053;50.848;4.652;2022-07-30T02:00:16;14.90;99.90
34837;DHT22;21053;50.848;4.652;2022-07-30T02:02:44;15.00;99.90
34837;DHT22;21053;50.848;4.652;2022-07-30T02:05:11;15.20;99.90
34837;DHT22;21053;50.848;4.652;2022-07-30T02:07:44;15.00;99.90
34837;DHT22;21053;50.848;4.652;2022-07-30T02:10:15;14.90;99.90
34837;DHT22;21053;50.848;4.652;2022-07-30T02:12:54;14.80;99.90
34837;DHT22;21053;50.848;4.652;2022-07-30T02:18:31;14.60;99.90
34837;DHT22;21053;50.848;4.652;2022-07-30T02:21:04;14.60;99.90
34837;DHT22;21053;50.848;4.652;2022-07-30T02:23:37;14.50;99.90
34837;DHT22;21053;50.848;4.652;2022-07-30T02:26:05;14.50;99.90
34837;DHT22;21053;50.848;4.652;2022-07-30T02:28:37;14.60;99.90
34837;DHT22;21053;50.848;4.652;2022-07-30T02:31:05;14.70;99.90
34837;DHT22;21053;50.848;4.652;2022-07-30T02:33:42;14.70;99.90
34837;DHT22;21053;50.848;4.652;2022-07-30T02:36:09;14.60;99.90
34837;DHT22;21053;50.848;4.652;2022-07-30T02:38:37;14.40;99.90
34837;DHT22;21053;50.848;4.652;2022-07-30T02:41:03;14.40;99.90
34837;DHT22;21053;50.848;4.652;2022-07-30T02:43:32;14.30;99.90
34837;DHT22;21053;50.848;4.652;2022-07-30T02:46:00;14.40;99.90
34837;DHT22;21053;50.848;4.652;2022-07-30T02:48:28;14.40;99.90
34837;DHT22;21053;50.848;4.652;2022-07-30T02:50:56;14.40;99.90
34837;DHT22;21053;50.848;4.652;2022-07-30T02:53:26;14.40;99.90
34837;DHT22;21053;50.848;4.652;2022-07-30T02:55:54;14.20;99.90
34837;DHT22;21053;50.848;4.652;2022-07-30T02:58:24;14.10;99.90
34837;DHT22;21053;50.848;4.652;2022-07-30T03:00:53;14.30;99.90
34837;DHT22;21053;50.848;4.652;2022-07-30T03:03:19;14.30;99.90
34837;DHT22;21053;50.848;4.652;2022-07-30T03:05:49;14.30;99.90
34837;DHT22;21053;50.848;4.652;2022-07-30T03:08:16;14.40;99.90
34837;DHT22;21053;50.848;4.652;2022-07-30T03:10:44;14.40;99.90
34837;DHT22;21053;50.848;4.652;2022-07-30T03:13:11;14.30;99.90
34837;DHT22;21053;50.848;4.652;2022-07-30T03:15:42;14.20;99.90
34837;DHT22;21053;50.848;4.652;2022-07-30T03:18:12;14.00;99.90
34837;DHT22;21053;50.848;4.652;2022-07-30T03:20:39;14.10;99.90
34837;DHT22;21053;50.848;4.652;2022-07-30T03:23:10;14.20;99.90
34837;DHT22;21053;50.848;4.652;2022-07-30T03:25:39;14.30;99.90
34837;DHT22;21053;50.848;4.652;2022-07-30T03:28:07;14.20;99.90
34837;DHT22;21053;50.848;4.652;2022-07-30T03:30:34;14.10;99.90
34837;DHT22;21053;50.848;4.652;2022-07-30T03:33:01;14.00;99.90
34837;DHT22;21053;50.848;4.652;2022-07-30T03:35:29;14.00;99.90
34837;DHT22;21053;50.848;4.652;2022-07-30T03:37:57;14.00;99.90
34837;DHT22;21053;50.848;4.652;2022-07-30T03:40:25;14.10;99.90
34837;DHT22;21053;50.848;4.652;2022-07-30T03:42:52;13.90;99.90
34837;DHT22;21053;50.848;4.652;2022-07-30T03:45:19;13.80;99.90
34837;DHT22;21053;50.848;4.652;2022-07-30T03:47:45;13.70;99.90
34837;DHT22;21053;50.848;4.652;2022-07-30T03:50:13;13.60;99.90
34837;DHT22;21053;50.848;4.652;2022-07-30T03:52:43;13.60;99.90
34837;DHT22;21053;50.848;4.652;2022-07-30T03:55:10;13.60;99.90
34837;DHT22;21053;50.848;4.652;2022-07-30T03:57:36;13.70;99.90
34837;DHT22;21053;50.848;4.652;2022-07-30T04:00:13;13.60;99.90
34837;DHT22;21053;50.848;4.652;2022-07-30T04:02:44;13.50;99.90
34837;DHT22;21053;50.848;4.652;2022-07-30T04:05:12;13.50;99.90
34837;DHT22;21053;50.848;4.652;2022-07-30T04:07:38;13.50;99.90
34837;DHT22;21053;50.848;4.652;2022-07-30T04:10:05;13.50;99.90
34837;DHT22;21053;50.848;4.652;2022-07-30T04:12:32;13.40;99.90
34837;DHT22;21053;50.848;4.652;2022-07-30T04:14:58;13.40;99.90
34837;DHT22;21053;50.848;4.652;2022-07-30T04:17:46;13.60;99.90
34837;DHT22;21053;50.848;4.652;2022-07-30T04:20:22;13.80;99.90
34837;DHT22;21053;50.848;4.652;2022-07-30T04:22:49;13.90;99.90
34837;DHT22;21053;50.848;4.652;2022-07-30T04:25:20;14.00;99.90
34837;DHT22;21053;50.848;4.652;2022-07-30T04:27:47;13.90;99.90
34837;DHT22;21053;50.848;4.652;2022-07-30T04:30:14;13.80;99.90
34837;DHT22;21053;50.848;4.652;2022-07-30T04:32:40;13.90;99.90
34837;DHT22;21053;50.848;4.652;2022-07-30T04:35:08;14.00;99.90
34837;DHT22;21053;50.848;4.652;2022-07-30T04:37:34;13.90;99.90
34837;DHT22;21053;50.848;4.652;2022-07-30T04:40:00;14.00;99.90
34837;DHT22;21053;50.848;4.652;2022-07-30T04:42:28;14.10;99.90
34837;DHT22;21053;50.848;4.652;2022-07-30T04:44:55;14.10;99.90
34837;DHT22;21053;50.848;4.652;2022-07-30T04:47:23;14.10;99.90
34837;DHT22;21053;50.848;4.652;2022-07-30T04:49:51;14.00;99.90
34837;DHT22;21053;50.848;4.652;2022-07-30T04:52:18;14.00;99.90
34837;DHT22;21053;50.848;4.652;2022-07-30T04:54:52;14.00;99.90
34837;DHT22;21053;50.848;4.652;2022-07-30T04:57:19;14.00;99.90
34837;DHT22;21053;50.848;4.652;2022-07-30T04:59:45;14.00;99.90
34837;DHT22;21053;50.848;4.652;2022-07-30T05:02:11;14.00;99.90
34837;DHT22;21053;50.848;4.652;2022-07-30T05:04:41;14.20;99.90
34837;DHT22;21053;50.848;4.652;2022-07-30T05:07:07;14.30;99.90
34837;DHT22;21053;50.848;4.652;2022-07-30T05:09:37;14.40;99.90
34837;DHT22;21053;50.848;4.652;2022-07-30T05:12:04;14.50;99.90
34837;DHT22;21053;50.848;4.652;2022-07-30T05:14:31;14.60;99.90
34837;DHT22;21053;50.848;4.652;2022-07-30T05:16:57;14.80;99.90
34837;DHT22;21053;50.848;4.652;2022-07-30T05:19:24;14.90;99.90
34837;DHT22;21053;50.848;4.652;2022-07-30T05:21:53;15.00;99.90
34837;DHT22;21053;50.848;4.652;2022-07-30T05:24:20;15.20;99.90
34837;DHT22;21053;50.848;4.652;2022-07-30T05:26:46;15.40;99.90
34837;DHT22;21053;50.848;4.652;2022-07-30T05:29:15;15.60;99.90
34837;DHT22;21053;50.848;4.652;2022-07-30T05:31:41;15.70;99.90
34837;DHT22;21053;50.848;4.652;2022-07-30T05:34:07;15.80;99.90
34837;DHT22;21053;50.848;4.652;2022-07-30T05:36:36;15.90;99.90
34837;DHT22;21053;50.848;4.652;2022-07-30T05:39:02;16.10;99.90
34837;DHT22;21053;50.848;4.652;2022-07-30T05:41:29;16.30;99.90
34837;DHT22;21053;50.848;4.652;2022-07-30T05:46:22;16.50;99.90
34837;DHT22;21053;50.848;4.652;2022-07-30T05:48:48;16.60;99.90
34837;DHT22;21053;50.848;4.652;2022-07-30T05:51:14;16.60;99.90
34837;DHT22;21053;50.848;4.652;2022-07-30T05:53:40;16.80;99.90
34837;DHT22;21053;50.848;4.652;2022-07-30T05:56:06;16.80;99.90
34837;DHT22;21053;50.848;4.652;2022-07-30T05:58:34;17.00;99.90
34837;DHT22;21053;50.848;4.652;2022-07-30T06:01:01;17.10;99.90
34837;DHT22;21053;50.848;4.652;2022-07-30T06:03:27;17.20;99.90
34837;DHT22;21053;50.848;4.652;2022-07-30T06:05:52;17.30;99.90
34837;DHT22;21053;50.848;4.652;2022-07-30T06:08:19;17.30;99.90
34837;DHT22;21053;50.848;4.652;2022-07-30T06:10:46;17.40;99.90
34837;DHT22;21053;50.848;4.652;2022-07-30T06:13:13;17.50;99.90
34837;DHT22;21053;50.848;4.652;2022-07-30T06:15:41;17.50;99.90
34837;DHT22;21053;50.848;4.652;2022-07-30T06:18:08;17.70;99.90
34837;DHT22;21053;50.848;4.652;2022-07-30T06:20:33;17.90;99.90
34837;DHT22;21053;50.848;4.652;2022-07-30T06:23:00;17.90;99.90
34837;DHT22;21053;50.848;4.652;2022-07-30T06:25:27;18.00;99.90
34837;DHT22;21053;50.848;4.652;2022-07-30T06:27:55;18.00;99.90
34837;DHT22;21053;50.848;4.652;2022-07-30T06:30:22;18.10;99.90
34837;DHT22;21053;50.848;4.652;2022-07-30T06:32:49;18.30;99.90
34837;DHT22;21053;50.848;4.652;2022-07-30T06:35:15;18.30;99.90
34837;DHT22;21053;50.848;4.652;2022-07-30T06:37:42;18.40;99.90
34837;DHT22;21053;50.848;4.652;2022-07-30T06:40:08;18.50;99.90
34837;DHT22;21053;50.848;4.652;2022-07-30T06:42:36;18.50;99.90
34837;DHT22;21053;50.848;4.652;2022-07-30T06:45:03;18.60;99.90
34837;DHT22;21053;50.848;4.652;2022-07-30T06:47:28;18.80;99.90
34837;DHT22;21053;50.848;4.652;2022-07-30T06:49:56;19.00;99.90
34837;DHT22;21053;50.848;4.652;2022-07-30T06:52:23;19.00;99.90
34837;DHT22;21053;50.848;4.652;2022-07-30T06:54:49;19.10;99.90
34837;DHT22;21053;50.848;4.652;2022-07-30T06:57:18;19.20;99.90
34837;DHT22;21053;50.848;4.652;2022-07-30T06:59:46;19.40;99.90
34837;DHT22;21053;50.848;4.652;2022-07-30T07:02:12;19.30;99.90
34837;DHT22;21053;50.848;4.652;2022-07-30T07:04:39;19.40;99.90
34837;DHT22;21053;50.848;4.652;2022-07-30T07:07:05;19.80;99.90
34837;DHT22;21053;50.848;4.652;2022-07-30T07:09:31;19.80;99.90
34837;DHT22;21053;50.848;4.652;2022-07-30T07:11:57;20.00;99.90
34837;DHT22;21053;50.848;4.652;2022-07-30T07:14:23;20.10;99.90
34837;DHT22;21053;50.848;4.652;2022-07-30T07:16:51;20.30;99.90
34837;DHT22;21053;50.848;4.652;2022-07-30T07:19:18;20.30;99.90
34837;DHT22;21053;50.848;4.652;2022-07-30T07:21:47;20.40;99.90
34837;DHT22;21053;50.848;4.652;2022-07-30T07:24:15;20.60;99.90
34837;DHT22;21053;50.848;4.652;2022-07-30T07:26:42;20.70;99.90
34837;DHT22;21053;50.848;4.652;2022-07-30T07:29:07;20.80;99.90
34837;DHT22;21053;50.848;4.652;2022-07-30T07:31:33;20.80;99.90
34837;DHT22;21053;50.848;4.652;2022-07-30T07:34:01;20.80;99.90
34837;DHT22;21053;50.848;4.652;2022-07-30T07:36:29;20.90;99.70
34837;DHT22;21053;50.848;4.652;2022-07-30T07:38:55;21.10;98.80
34837;DHT22;21053;50.848;4.652;2022-07-30T07:41:22;21.30;98.60
34837;DHT22;21053;50.848;4.652;2022-07-30T07:43:48;21.50;97.60
34837;DHT22;21053;50.848;4.652;2022-07-30T07:46:15;21.60;97.70
34837;DHT22;21053;50.848;4.652;2022-07-30T07:48:43;21.70;96.80
34837;DHT22;21053;50.848;4.652;2022-07-30T07:51:12;21.90;96.20
34837;DHT22;21053;50.848;4.652;2022-07-30T07:53:40;22.10;95.20
34837;DHT22;21053;50.848;4.652;2022-07-30T07:56:07;22.10;94.90
34837;DHT22;21053;50.848;4.652;2022-07-30T07:58:35;22.00;93.30
34837;DHT22;21053;50.848;4.652;2022-07-30T08:01:00;22.00;93.80
34837;DHT22;21053;50.848;4.652;2022-07-30T08:03:26;21.90;93.20
34837;DHT22;21053;50.848;4.652;2022-07-30T08:05:52;22.10;93.10
34837;DHT22;21053;50.848;4.652;2022-07-30T08:08:17;22.30;93.50
34837;DHT22;21053;50.848;4.652;2022-07-30T08:10:44;22.50;92.20
34837;DHT22;21053;50.848;4.652;2022-07-30T08:13:10;22.90;92.00
34837;DHT22;21053;50.848;4.652;2022-07-30T08:15:37;23.10;91.40
34837;DHT22;21053;50.848;4.652;2022-07-30T08:18:03;23.30;90.80
34837;DHT22;21053;50.848;4.652;2022-07-30T08:20:29;23.50;89.80
34837;DHT22;21053;50.848;4.652;2022-07-30T08:22:55;23.80;90.20
34837;DHT22;21053;50.848;4.652;2022-07-30T08:25:21;24.10;89.10
34837;DHT22;21053;50.848;4.652;2022-07-30T08:27:47;24.30;84.10
34837;DHT22;21053;50.848;4.652;2022-07-30T08:30:13;24.40;86.20
34837;DHT22;21053;50.848;4.652;2022-07-30T08:32:39;24.60;82.80
34837;DHT22;21053;50.848;4.652;2022-07-30T08:35:05;24.30;81.30
34837;DHT22;21053;50.848;4.652;2022-07-30T08:37:31;24.40;81.20
34837;DHT22;21053;50.848;4.652;2022-07-30T08:39:57;24.50;82.30
34837;DHT22;21053;50.848;4.652;2022-07-30T08:42:23;24.80;82.10
34837;DHT22;21053;50.848;4.652;2022-07-30T08:44:50;25.20;80.20
34837;DHT22;21053;50.848;4.652;2022-07-30T08:47:17;25.20;78.50
34837;DHT22;21053;50.848;4.652;2022-07-30T08:49:47;25.40;78.80
34837;DHT22;21053;50.848;4.652;2022-07-30T08:52:16;25.40;76.80
34837;DHT22;21053;50.848;4.652;2022-07-30T08:54:42;25.60;74.80
34837;DHT22;21053;50.848;4.652;2022-07-30T08:57:08;26.10;75.60
34837;DHT22;21053;50.848;4.652;2022-07-30T08:59:37;26.40;73.90
34837;DHT22;21053;50.848;4.652;2022-07-30T09:02:05;26.60;74.40
34837;DHT22;21053;50.848;4.652;2022-07-30T09:04:32;26.70;73.00
34837;DHT22;21053;50.848;4.652;2022-07-30T09:07:01;26.60;75.20
34837;DHT22;21053;50.848;4.652;2022-07-30T09:09:30;26.80;74.80
34837;DHT22;21053;50.848;4.652;2022-07-30T09:11:58;26.70;70.80
34837;DHT22;21053;50.848;4.652;2022-07-30T09:14:27;27.10;74.80
34837;DHT22;21053;50.848;4.652;2022-07-30T09:16:55;27.20;72.30
34837;DHT22;21053;50.848;4.652;2022-07-30T09:19:24;27.40;72.30
34837;DHT22;21053;50.848;4.652;2022-07-30T09:22:01;27.60;70.50
34837;DHT22;21053;50.848;4.652;2022-07-30T09:24:28;27.50;69.40
34837;DHT22;21053;50.848;4.652;2022-07-30T09:27:08;27.40;71.70
34837;DHT22;21053;50.848;4.652;2022-07-30T09:29:37;27.60;73.70
34837;DHT22;21053;50.848;4.652;2022-07-30T09:32:06;27.70;72.00
34837;DHT22;21053;50.848;4.652;2022-07-30T09:34:37;27.60;70.10
34837;DHT22;21053;50.848;4.652;2022-07-30T09:37:16;27.60;71.20
34837;DHT22;21053;50.848;4.652;2022-07-30T09:39:44;27.70;66.40
34837;DHT22;21053;50.848;4.652;2022-07-30T09:42:28;27.60;76.20
34837;DHT22;21053;50.848;4.652;2022-07-30T09:45:14;27.80;69.60
34837;DHT22;21053;50.848;4.652;2022-07-30T09:47:43;28.10;74.80
34837;DHT22;21053;50.848;4.652;2022-07-30T09:50:16;28.60;66.90
34837;DHT22;21053;50.848;4.652;2022-07-30T09:52:47;28.90;70.50
34837;DHT22;21053;50.848;4.652;2022-07-30T09:55:31;28.90;66.80
34837;DHT22;21053;50.848;4.652;2022-07-30T09:58:05;28.60;65.20
34837;DHT22;21053;50.848;4.652;2022-07-30T10:00:33;28.50;71.30
34837;DHT22;21053;50.848;4.652;2022-07-30T10:03:01;28.60;66.70
34837;DHT22;21053;50.848;4.652;2022-07-30T10:06:00;28.60;68.00
34837;DHT22;21053;50.848;4.652;2022-07-30T10:12:25;29.60;64.20
34837;DHT22;21053;50.848;4.652;2022-07-30T10:14:54;29.90;63.20
34837;DHT22;21053;50.848;4.652;2022-07-30T10:17:21;30.20;63.60
34837;DHT22;21053;50.848;4.652;2022-07-30T10:19:49;30.10;64.70
34837;DHT22;21053;50.848;4.652;2022-07-30T10:22:16;29.90;64.50
34837;DHT22;21053;50.848;4.652;2022-07-30T10:24:43;29.60;64.60
34837;DHT22;21053;50.848;4.652;2022-07-30T10:27:14;29.10;65.70
34837;DHT22;21053;50.848;4.652;2022-07-30T10:29:41;29.40;63.40
34837;DHT22;21053;50.848;4.652;2022-07-30T10:32:07;29.20;63.70
34837;DHT22;21053;50.848;4.652;2022-07-30T10:34:33;29.00;63.20
34837;DHT22;21053;50.848;4.652;2022-07-30T10:37:04;28.80;64.00
34837;DHT22;21053;50.848;4.652;2022-07-30T10:39:53;29.10;67.60
34837;DHT22;21053;50.848;4.652;2022-07-30T10:42:44;29.60;64.10
34837;DHT22;21053;50.848;4.652;2022-07-30T10:45:19;29.70;65.30
34837;DHT22;21053;50.848;4.652;2022-07-30T10:47:53;29.60;62.10
34837;DHT22;21053;50.848;4.652;2022-07-30T10:50:22;29.50;65.30
34837;DHT22;21053;50.848;4.652;2022-07-30T10:52:55;29.80;66.80
34837;DHT22;21053;50.848;4.652;2022-07-30T10:55:28;30.10;59.20
34837;DHT22;21053;50.848;4.652;2022-07-30T11:00:34;29.70;57.70
34837;DHT22;21053;50.848;4.652;2022-07-30T11:03:12;29.40;59.20
34837;DHT22;21053;50.848;4.652;2022-07-30T11:05:39;29.10;62.40
34837;DHT22;21053;50.848;4.652;2022-07-30T11:08:34;29.10;61.20
34837;DHT22;21053;50.848;4.652;2022-07-30T11:11:41;29.20;61.10
34837;DHT22;21053;50.848;4.652;2022-07-30T11:14:09;29.10;64.20
34837;DHT22;21053;50.848;4.652;2022-07-30T11:19:17;29.10;61.10
34837;DHT22;21053;50.848;4.652;2022-07-30T11:22:26;28.90;61.70
34837;DHT22;21053;50.848;4.652;2022-07-30T11:24:57;28.80;62.30
34837;DHT22;21053;50.848;4.652;2022-07-30T11:27:42;28.90;62.50
34837;DHT22;21053;50.848;4.652;2022-07-30T11:32:49;28.80;64.10
34837;DHT22;21053;50.848;4.652;2022-07-30T11:35:18;29.00;66.60
34837;DHT22;21053;50.848;4.652;2022-07-30T11:40:36;29.00;63.90
34837;DHT22;21053;50.848;4.652;2022-07-30T11:43:21;29.10;60.90
34837;DHT22;21053;50.848;4.652;2022-07-30T11:45:54;29.10;63.20
34837;DHT22;21053;50.848;4.652;2022-07-30T11:48:33;29.00;64.30
34837;DHT22;21053;50.848;4.652;2022-07-30T11:50:59;29.10;65.10
34837;DHT22;21053;50.848;4.652;2022-07-30T11:53:26;29.00;59.30
34837;DHT22;21053;50.848;4.652;2022-07-30T11:55:56;28.70;61.60
34837;DHT22;21053;50.848;4.652;2022-07-30T11:58:27;28.70;64.00
34837;DHT22;21053;50.848;4.652;2022-07-30T12:00:55;29.00;61.40
34837;DHT22;21053;50.848;4.652;2022-07-30T12:03:22;29.50;60.30
34837;DHT22;21053;50.848;4.652;2022-07-30T12:05:49;29.90;58.90
34837;DHT22;21053;50.848;4.652;2022-07-30T12:08:19;29.50;56.40
34837;DHT22;21053;50.848;4.652;2022-07-30T12:10:57;29.70;60.60
34837;DHT22;21053;50.848;4.652;2022-07-30T12:13:27;30.00;60.10
34837;DHT22;21053;50.848;4.652;2022-07-30T12:15:55;30.20;59.60
34837;DHT22;21053;50.848;4.652;2022-07-30T12:18:27;30.20;60.40
34837;DHT22;21053;50.848;4.652;2022-07-30T12:21:04;30.00;62.30
34837;DHT22;21053;50.848;4.652;2022-07-30T12:23:31;30.50;58.80
34837;DHT22;21053;50.848;4.652;2022-07-30T12:26:00;30.60;58.10
34837;DHT22;21053;50.848;4.652;2022-07-30T12:28:30;30.60;60.90
34837;DHT22;21053;50.848;4.652;2022-07-30T12:30:58;30.80;60.30
34837;DHT22;21053;50.848;4.652;2022-07-30T12:33:27;30.90;63.20
34837;DHT22;21053;50.848;4.652;2022-07-30T12:35:58;30.90;62.90
34837;DHT22;21053;50.848;4.652;2022-07-30T12:38:26;30.80;56.90
34837;DHT22;21053;50.848;4.652;2022-07-30T12:41:03;31.20;58.80
34837;DHT22;21053;50.848;4.652;2022-07-30T12:43:59;31.40;57.00
34837;DHT22;21053;50.848;4.652;2022-07-30T12:46:26;31.60;59.00
34837;DHT22;21053;50.848;4.652;2022-07-30T12:48:59;31.50;55.50
34837;DHT22;21053;50.848;4.652;2022-07-30T12:51:33;31.40;57.00
34837;DHT22;21053;50.848;4.652;2022-07-30T12:54:06;31.40;56.50
34837;DHT22;21053;50.848;4.652;2022-07-30T12:56:39;30.80;58.50
34837;DHT22;21053;50.848;4.652;2022-07-30T12:59:20;30.50;54.60
34837;DHT22;21053;50.848;4.652;2022-07-30T13:01:46;30.30;56.40
34837;DHT22;21053;50.848;4.652;2022-07-30T13:04:15;29.90;58.40
34837;DHT22;21053;50.848;4.652;2022-07-30T13:07:02;29.70;58.90
34837;DHT22;21053;50.848;4.652;2022-07-30T13:09:28;29.70;59.70
34837;DHT22;21053;50.848;4.652;2022-07-30T13:11:55;29.70;57.80
34837;DHT22;21053;50.848;4.652;2022-07-30T13:14:21;29.60;58.10
34837;DHT22;21053;50.848;4.652;2022-07-30T13:16:47;29.50;59.10
34837;DHT22;21053;50.848;4.652;2022-07-30T13:19:15;29.50;59.10
34837;DHT22;21053;50.848;4.652;2022-07-30T13:21:43;29.60;60.60
34837;DHT22;21053;50.848;4.652;2022-07-30T13:24:13;29.70;59.60
34837;DHT22;21053;50.848;4.652;2022-07-30T13:26:42;29.90;59.20
34837;DHT22;21053;50.848;4.652;2022-07-30T13:29:08;29.90;57.80
34837;DHT22;21053;50.848;4.652;2022-07-30T13:31:37;29.70;58.70
34837;DHT22;21053;50.848;4.652;2022-07-30T13:34:05;29.50;57.80
34837;DHT22;21053;50.848;4.652;2022-07-30T13:36:35;29.50;61.30
34837;DHT22;21053;50.848;4.652;2022-07-30T13:39:02;29.30;58.80
34837;DHT22;21053;50.848;4.652;2022-07-30T13:41:34;29.10;59.50
34837;DHT22;21053;50.848;4.652;2022-07-30T13:44:01;28.70;63.70
34837;DHT22;21053;50.848;4.652;2022-07-30T13:46:30;28.60;59.90
34837;DHT22;21053;50.848;4.652;2022-07-30T13:48:59;28.30;65.40
34837;DHT22;21053;50.848;4.652;2022-07-30T13:51:26;28.20;66.50
34837;DHT22;21053;50.848;4.652;2022-07-30T13:53:51;28.20;76.40
34837;DHT22;21053;50.848;4.652;2022-07-30T13:56:19;28.20;79.60
34837;DHT22;21053;50.848;4.652;2022-07-30T13:58:46;28.10;69.80
34837;DHT22;21053;50.848;4.652;2022-07-30T14:01:14;28.10;66.60
34837;DHT22;21053;50.848;4.652;2022-07-30T14:03:42;28.20;68.20
34837;DHT22;21053;50.848;4.652;2022-07-30T14:08:34;28.40;67.80
34837;DHT22;21053;50.848;4.652;2022-07-30T14:10:59;28.60;65.30
34837;DHT22;21053;50.848;4.652;2022-07-30T14:13:25;28.60;66.50
34837;DHT22;21053;50.848;4.652;2022-07-30T14:15:54;29.00;62.00
34837;DHT22;21053;50.848;4.652;2022-07-30T14:18:23;29.10;63.90
34837;DHT22;21053;50.848;4.652;2022-07-30T14:20:51;29.40;60.00
34837;DHT22;21053;50.848;4.652;2022-07-30T14:23:24;29.60;59.20
34837;DHT22;21053;50.848;4.652;2022-07-30T14:25:53;30.00;60.70
34837;DHT22;21053;50.848;4.652;2022-07-30T14:28:19;30.30;59.20
34837;DHT22;21053;50.848;4.652;2022-07-30T14:30:48;30.50;57.90
34837;DHT22;21053;50.848;4.652;2022-07-30T14:33:20;30.30;57.00
34837;DHT22;21053;50.848;4.652;2022-07-30T14:35:46;30.40;56.50
34837;DHT22;21053;50.848;4.652;2022-07-30T14:38:12;30.70;57.20
34837;DHT22;21053;50.848;4.652;2022-07-30T14:40:39;30.90;56.70
34837;DHT22;21053;50.848;4.652;2022-07-30T14:43:06;30.70;54.00
34837;DHT22;21053;50.848;4.652;2022-07-30T14:45:32;30.60;56.80
34837;DHT22;21053;50.848;4.652;2022-07-30T14:47:57;30.30;56.00
34837;DHT22;21053;50.848;4.652;2022-07-30T14:50:23;29.90;55.30
34837;DHT22;21053;50.848;4.652;2022-07-30T14:52:49;29.80;54.50
34837;DHT22;21053;50.848;4.652;2022-07-30T14:55:15;29.70;57.30
34837;DHT22;21053;50.848;4.652;2022-07-30T14:57:40;30.00;56.00
34837;DHT22;21053;50.848;4.652;2022-07-30T15:00:08;30.20;57.10
34837;DHT22;21053;50.848;4.652;2022-07-30T15:02:36;30.30;57.30
34837;DHT22;21053;50.848;4.652;2022-07-30T15:05:03;30.30;56.70
34837;DHT22;21053;50.848;4.652;2022-07-30T15:07:30;30.30;55.80
34837;DHT22;21053;50.848;4.652;2022-07-30T15:09:57;30.20;55.80
34837;DHT22;21053;50.848;4.652;2022-07-30T15:12:22;30.10;57.60
34837;DHT22;21053;50.848;4.652;2022-07-30T15:14:48;30.00;53.90
34837;DHT22;21053;50.848;4.652;2022-07-30T15:17:15;29.90;57.60
34837;DHT22;21053;50.848;4.652;2022-07-30T15:19:41;29.90;57.90
34837;DHT22;21053;50.848;4.652;2022-07-30T15:22:10;29.90;56.50
34837;DHT22;21053;50.848;4.652;2022-07-30T15:24:36;29.80;57.30
34837;DHT22;21053;50.848;4.652;2022-07-30T15:27:02;29.80;55.60
34837;DHT22;21053;50.848;4.652;2022-07-30T15:29:28;29.70;57.50
34837;DHT22;21053;50.848;4.652;2022-07-30T15:31:54;29.50;57.00
34837;DHT22;21053;50.848;4.652;2022-07-30T15:34:20;29.50;56.10
34837;DHT22;21053;50.848;4.652;2022-07-30T15:36:48;29.50;58.20
34837;DHT22;21053;50.848;4.652;2022-07-30T15:39:17;29.30;56.90
34837;DHT22;21053;50.848;4.652;2022-07-30T15:41:43;29.30;57.10
34837;DHT22;21053;50.848;4.652;2022-07-30T15:44:10;29.20;57.90
34837;DHT22;21053;50.848;4.652;2022-07-30T15:46:39;29.30;60.70
34837;DHT22;21053;50.848;4.652;2022-07-30T15:49:07;29.30;59.40
34837;DHT22;21053;50.848;4.652;2022-07-30T15:51:37;29.30;57.20
34837;DHT22;21053;50.848;4.652;2022-07-30T15:54:11;29.40;56.60
34837;DHT22;21053;50.848;4.652;2022-07-30T15:56:37;29.60;56.00
34837;DHT22;21053;50.848;4.652;2022-07-30T15:59:02;29.50;55.80
34837;DHT22;21053;50.848;4.652;2022-07-30T16:01:28;29.60;55.00
34837;DHT22;21053;50.848;4.652;2022-07-30T16:03:55;29.50;57.40
34837;DHT22;21053;50.848;4.652;2022-07-30T16:06:21;29.40;58.80
34837;DHT22;21053;50.848;4.652;2022-07-30T16:08:47;29.20;56.40